Decoded Metar for LFSI (ST.-DIZIER in FRANCE) (IATA:N/A) | Meteo·Mobile Aviation Weather
aviador You're here:

LFSI Decoded Metar

ST.-DIZIER in FRANCE
Report Time2019-04-20 11:00:00
UTC Time2019-04-20 11:15:47
Flight Rules vfr VFR
Wind080° at 14 kt
W.Decomp.*RWY 11: 12.0 kt HW 7.2 kt LCW
Visibility9999 m
Phenomena:N/A
Clouds:Few 014 Hf
Expected CloudBase > 9,200 ft AGL from Temp-Dew spread
CeilingNone
Temp24°C (ISA +10)
Dew Point01°C (22% RH)
AAT17.1°C
QNH1025 hPa
Density Alt1,302 ft
Elevation459 ft
Report Wrong Elevation
Raw Report
LFSI 201100Z AUTO 08014KT 040V110 9999 FEW014 24/01 Q1025=

Extra information for LFSI:More info

Metar Taf Metar & Taf Last 4 Metars F.Rules Stats Wind Profile Meteogram Temp Stats Airport Information Weather charts Add Link Nearby VenuesMetar ALERT Operation Metar Decoded Social comments